sensor_id;sensor_type;location;lat;lon;timestamp;P1;durP1;ratioP1;P2;durP2;ratioP2
50549;SDS011;36505;52.512;13.460;2022-10-16T00:00:56;8.18;;;4.78;;
50549;SDS011;36505;52.512;13.460;2022-10-16T00:03:21;7.43;;;3.70;;
50549;SDS011;36505;52.512;13.460;2022-10-16T00:05:47;7.30;;;3.90;;
50549;SDS011;36505;52.512;13.460;2022-10-16T00:08:12;6.90;;;4.00;;
50549;SDS011;36505;52.512;13.460;2022-10-16T00:10:38;5.78;;;3.25;;
50549;SDS011;36505;52.512;13.460;2022-10-16T00:13:04;5.35;;;3.58;;
50549;SDS011;36505;52.512;13.460;2022-10-16T00:15:32;7.05;;;3.38;;
50549;SDS011;36505;52.512;13.460;2022-10-16T00:18:01;7.15;;;3.90;;
50549;SDS011;36505;52.512;13.460;2022-10-16T00:20:26;5.13;;;3.50;;
50549;SDS011;36505;52.512;13.460;2022-10-16T00:22:52;9.05;;;3.63;;
50549;SDS011;36505;52.512;13.460;2022-10-16T00:25:17;7.38;;;4.15;;
50549;SDS011;36505;52.512;13.460;2022-10-16T00:27:42;9.50;;;3.83;;
50549;SDS011;36505;52.512;13.460;2022-10-16T00:30:08;6.28;;;3.50;;
50549;SDS011;36505;52.512;13.460;2022-10-16T00:32:33;49.58;;;11.98;;
50549;SDS011;36505;52.512;13.460;2022-10-16T00:34:59;33.40;;;11.25;;
50549;SDS011;36505;52.512;13.460;2022-10-16T00:37:24;24.42;;;7.85;;
50549;SDS011;36505;52.512;13.460;2022-10-16T00:39:49;45.67;;;12.35;;
50549;SDS011;36505;52.512;13.460;2022-10-16T00:42:15;18.20;;;6.95;;
50549;SDS011;36505;52.512;13.460;2022-10-16T00:47:14;16.60;;;5.88;;
50549;SDS011;36505;52.512;13.460;2022-10-16T00:52:23;9.18;;;4.63;;
50549;SDS011;36505;52.512;13.460;2022-10-16T00:54:49;10.52;;;4.60;;
50549;SDS011;36505;52.512;13.460;2022-10-16T00:57:17;5.55;;;3.50;;
50549;SDS011;36505;52.512;13.460;2022-10-16T00:59:42;5.80;;;2.63;;
50549;SDS011;36505;52.512;13.460;2022-10-16T01:02:10;6.57;;;4.07;;
50549;SDS011;36505;52.512;13.460;2022-10-16T01:04:38;14.77;;;5.18;;
50549;SDS011;36505;52.512;13.460;2022-10-16T01:07:12;29.25;;;7.05;;
50549;SDS011;36505;52.512;13.460;2022-10-16T01:15:05;6.05;;;3.00;;
50549;SDS011;36505;52.512;13.460;2022-10-16T01:20:30;5.95;;;2.85;;
50549;SDS011;36505;52.512;13.460;2022-10-16T01:28:40;6.30;;;2.80;;
50549;SDS011;36505;52.512;13.460;2022-10-16T01:31:06;4.97;;;2.67;;
50549;SDS011;36505;52.512;13.460;2022-10-16T01:33:35;6.05;;;3.33;;
50549;SDS011;36505;52.512;13.460;2022-10-16T01:38:38;4.43;;;2.60;;
50549;SDS011;36505;52.512;13.460;2022-10-16T01:41:07;5.53;;;2.53;;
50549;SDS011;36505;52.512;13.460;2022-10-16T01:43:38;4.97;;;2.53;;
50549;SDS011;36505;52.512;13.460;2022-10-16T01:46:10;5.45;;;2.42;;
50549;SDS011;36505;52.512;13.460;2022-10-16T01:48:38;6.40;;;2.88;;
50549;SDS011;36505;52.512;13.460;2022-10-16T01:51:05;14.85;;;2.92;;
50549;SDS011;36505;52.512;13.460;2022-10-16T01:53:33;16.70;;;4.68;;
50549;SDS011;36505;52.512;13.460;2022-10-16T01:56:00;7.75;;;3.35;;
50549;SDS011;36505;52.512;13.460;2022-10-16T01:58:28;6.85;;;3.45;;
50549;SDS011;36505;52.512;13.460;2022-10-16T02:00:59;7.65;;;3.97;;
50549;SDS011;36505;52.512;13.460;2022-10-16T02:03:26;6.55;;;2.45;;
50549;SDS011;36505;52.512;13.460;2022-10-16T02:05:53;8.00;;;2.95;;
50549;SDS011;36505;52.512;13.460;2022-10-16T02:08:21;6.05;;;2.33;;
50549;SDS011;36505;52.512;13.460;2022-10-16T02:10:49;7.82;;;3.10;;
50549;SDS011;36505;52.512;13.460;2022-10-16T02:15:52;5.05;;;2.33;;
50549;SDS011;36505;52.512;13.460;2022-10-16T02:18:18;3.45;;;2.22;;
50549;SDS011;36505;52.512;13.460;2022-10-16T02:20:47;11.88;;;1.80;;
50549;SDS011;36505;52.512;13.460;2022-10-16T02:23:19;7.05;;;2.75;;
50549;SDS011;36505;52.512;13.460;2022-10-16T02:25:53;3.72;;;2.17;;
50549;SDS011;36505;52.512;13.460;2022-10-16T02:28:24;2.80;;;1.70;;
50549;SDS011;36505;52.512;13.460;2022-10-16T02:30:56;2.95;;;1.63;;
50549;SDS011;36505;52.512;13.460;2022-10-16T02:33:28;2.15;;;1.60;;
50549;SDS011;36505;52.512;13.460;2022-10-16T02:35:55;4.32;;;1.95;;
50549;SDS011;36505;52.512;13.460;2022-10-16T02:38:22;3.10;;;2.10;;
50549;SDS011;36505;52.512;13.460;2022-10-16T02:40:49;3.17;;;1.65;;
50549;SDS011;36505;52.512;13.460;2022-10-16T02:43:15;3.33;;;1.48;;
50549;SDS011;36505;52.512;13.460;2022-10-16T02:45:41;2.90;;;1.65;;
50549;SDS011;36505;52.512;13.460;2022-10-16T02:48:06;3.65;;;1.80;;
50549;SDS011;36505;52.512;13.460;2022-10-16T02:50:32;1.73;;;1.50;;
50549;SDS011;36505;52.512;13.460;2022-10-16T02:52:57;3.13;;;1.83;;
50549;SDS011;36505;52.512;13.460;2022-10-16T02:55:22;2.55;;;1.55;;
50549;SDS011;36505;52.512;13.460;2022-10-16T02:57:48;2.63;;;1.85;;
50549;SDS011;36505;52.512;13.460;2022-10-16T03:00:14;1.75;;;1.63;;
50549;SDS011;36505;52.512;13.460;2022-10-16T03:02:40;2.38;;;1.48;;
50549;SDS011;36505;52.512;13.460;2022-10-16T03:05:06;4.03;;;1.98;;
50549;SDS011;36505;52.512;13.460;2022-10-16T03:07:32;2.28;;;1.40;;
50549;SDS011;36505;52.512;13.460;2022-10-16T03:09:57;5.00;;;1.50;;
50549;SDS011;36505;52.512;13.460;2022-10-16T03:12:25;4.82;;;2.10;;
50549;SDS011;36505;52.512;13.460;2022-10-16T03:14:51;2.88;;;1.70;;
50549;SDS011;36505;52.512;13.460;2022-10-16T03:17:16;3.47;;;2.15;;
50549;SDS011;36505;52.512;13.460;2022-10-16T03:19:42;2.42;;;1.50;;
50549;SDS011;36505;52.512;13.460;2022-10-16T03:22:07;2.25;;;1.80;;
50549;SDS011;36505;52.512;13.460;2022-10-16T03:24:33;2.08;;;1.55;;
50549;SDS011;36505;52.512;13.460;2022-10-16T03:26:58;3.05;;;2.17;;
50549;SDS011;36505;52.512;13.460;2022-10-16T03:29:24;3.75;;;2.20;;
50549;SDS011;36505;52.512;13.460;2022-10-16T03:31:50;1.92;;;1.30;;
50549;SDS011;36505;52.512;13.460;2022-10-16T03:34:16;4.10;;;1.67;;
50549;SDS011;36505;52.512;13.460;2022-10-16T03:36:41;4.22;;;1.90;;
50549;SDS011;36505;52.512;13.460;2022-10-16T03:39:07;2.28;;;1.52;;
50549;SDS011;36505;52.512;13.460;2022-10-16T03:41:32;2.60;;;1.70;;
50549;SDS011;36505;52.512;13.460;2022-10-16T03:43:57;2.88;;;1.88;;
50549;SDS011;36505;52.512;13.460;2022-10-16T03:46:23;2.67;;;2.08;;
50549;SDS011;36505;52.512;13.460;2022-10-16T03:48:48;7.95;;;2.40;;
50549;SDS011;36505;52.512;13.460;2022-10-16T03:51:13;3.53;;;1.58;;
50549;SDS011;36505;52.512;13.460;2022-10-16T03:53:38;4.75;;;1.83;;
50549;SDS011;36505;52.512;13.460;2022-10-16T03:56:04;2.75;;;1.70;;
50549;SDS011;36505;52.512;13.460;2022-10-16T03:58:29;4.45;;;2.53;;
50549;SDS011;36505;52.512;13.460;2022-10-16T04:00:55;4.03;;;2.10;;
50549;SDS011;36505;52.512;13.460;2022-10-16T04:03:20;3.97;;;2.40;;
50549;SDS011;36505;52.512;13.460;2022-10-16T04:05:46;4.03;;;2.33;;
50549;SDS011;36505;52.512;13.460;2022-10-16T04:08:11;2.45;;;1.60;;
50549;SDS011;36505;52.512;13.460;2022-10-16T04:10:37;2.55;;;1.58;;
50549;SDS011;36505;52.512;13.460;2022-10-16T04:13:02;2.40;;;1.70;;
50549;SDS011;36505;52.512;13.460;2022-10-16T04:15:28;2.80;;;1.67;;
50549;SDS011;36505;52.512;13.460;2022-10-16T04:17:53;5.38;;;2.05;;
50549;SDS011;36505;52.512;13.460;2022-10-16T04:20:18;7.60;;;2.83;;
50549;SDS011;36505;52.512;13.460;2022-10-16T04:22:44;4.22;;;2.08;;
50549;SDS011;36505;52.512;13.460;2022-10-16T04:25:10;2.50;;;1.90;;
50549;SDS011;36505;52.512;13.460;2022-10-16T04:27:36;5.55;;;1.80;;
50549;SDS011;36505;52.512;13.460;2022-10-16T04:30:02;7.47;;;3.05;;
50549;SDS011;36505;52.512;13.460;2022-10-16T04:32:28;4.18;;;2.08;;
50549;SDS011;36505;52.512;13.460;2022-10-16T04:34:53;5.68;;;2.80;;
50549;SDS011;36505;52.512;13.460;2022-10-16T04:37:19;9.15;;;3.30;;
50549;SDS011;36505;52.512;13.460;2022-10-16T04:39:48;10.02;;;4.00;;
50549;SDS011;36505;52.512;13.460;2022-10-16T04:42:13;7.45;;;3.63;;
50549;SDS011;36505;52.512;13.460;2022-10-16T04:44:39;6.45;;;2.10;;
50549;SDS011;36505;52.512;13.460;2022-10-16T04:47:04;8.57;;;1.80;;
50549;SDS011;36505;52.512;13.460;2022-10-16T04:49:30;8.07;;;2.13;;
50549;SDS011;36505;52.512;13.460;2022-10-16T04:51:56;3.70;;;2.47;;
50549;SDS011;36505;52.512;13.460;2022-10-16T04:54:22;4.50;;;1.98;;
50549;SDS011;36505;52.512;13.460;2022-10-16T04:56:47;4.00;;;1.80;;
50549;SDS011;36505;52.512;13.460;2022-10-16T04:59:15;2.60;;;1.67;;
50549;SDS011;36505;52.512;13.460;2022-10-16T05:01:41;7.72;;;2.92;;
50549;SDS011;36505;52.512;13.460;2022-10-16T05:04:07;4.55;;;2.33;;
50549;SDS011;36505;52.512;13.460;2022-10-16T05:06:33;4.70;;;2.10;;
50549;SDS011;36505;52.512;13.460;2022-10-16T05:08:58;2.83;;;1.77;;
50549;SDS011;36505;52.512;13.460;2022-10-16T05:11:24;13.98;;;4.68;;
50549;SDS011;36505;52.512;13.460;2022-10-16T05:13:49;9.15;;;3.65;;
50549;SDS011;36505;52.512;13.460;2022-10-16T05:16:14;6.13;;;3.33;;
50549;SDS011;36505;52.512;13.460;2022-10-16T05:18:40;5.43;;;3.25;;
50549;SDS011;36505;52.512;13.460;2022-10-16T05:21:05;6.18;;;3.20;;
50549;SDS011;36505;52.512;13.460;2022-10-16T05:23:31;3.90;;;2.72;;
50549;SDS011;36505;52.512;13.460;2022-10-16T05:25:56;6.85;;;2.80;;
50549;SDS011;36505;52.512;13.460;2022-10-16T05:28:24;5.45;;;2.50;;
50549;SDS011;36505;52.512;13.460;2022-10-16T05:30:50;4.85;;;2.33;;
50549;SDS011;36505;52.512;13.460;2022-10-16T05:33:15;4.32;;;2.75;;
50549;SDS011;36505;52.512;13.460;2022-10-16T05:35:41;3.25;;;2.28;;
50549;SDS011;36505;52.512;13.460;2022-10-16T05:38:07;4.82;;;2.50;;
50549;SDS011;36505;52.512;13.460;2022-10-16T05:40:32;6.60;;;2.47;;
50549;SDS011;36505;52.512;13.460;2022-10-16T05:42:58;5.75;;;1.98;;
50549;SDS011;36505;52.512;13.460;2022-10-16T05:45:23;6.88;;;2.97;;
50549;SDS011;36505;52.512;13.460;2022-10-16T05:47:48;2.30;;;2.00;;
50549;SDS011;36505;52.512;13.460;2022-10-16T05:50:14;4.22;;;2.63;;
50549;SDS011;36505;52.512;13.460;2022-10-16T05:52:39;6.10;;;3.42;;
50549;SDS011;36505;52.512;13.460;2022-10-16T05:55:04;6.47;;;3.03;;
50549;SDS011;36505;52.512;13.460;2022-10-16T05:57:30;3.63;;;2.17;;
50549;SDS011;36505;52.512;13.460;2022-10-16T05:59:56;4.22;;;2.67;;
50549;SDS011;36505;52.512;13.460;2022-10-16T06:02:21;6.35;;;2.70;;
50549;SDS011;36505;52.512;13.460;2022-10-16T06:04:46;5.22;;;2.38;;
50549;SDS011;36505;52.512;13.460;2022-10-16T06:07:12;7.75;;;2.65;;
50549;SDS011;36505;52.512;13.460;2022-10-16T06:09:37;3.58;;;2.58;;
50549;SDS011;36505;52.512;13.460;2022-10-16T06:12:02;4.53;;;2.03;;
50549;SDS011;36505;52.512;13.460;2022-10-16T06:14:28;5.85;;;2.47;;
50549;SDS011;36505;52.512;13.460;2022-10-16T06:16:53;7.72;;;3.33;;
50549;SDS011;36505;52.512;13.460;2022-10-16T06:19:19;4.15;;;2.50;;
50549;SDS011;36505;52.512;13.460;2022-10-16T06:21:44;9.70;;;4.25;;
50549;SDS011;36505;52.512;13.460;2022-10-16T06:24:10;5.50;;;2.72;;
50549;SDS011;36505;52.512;13.460;2022-10-16T06:26:35;7.78;;;2.25;;
50549;SDS011;36505;52.512;13.460;2022-10-16T06:29:02;4.53;;;2.88;;
50549;SDS011;36505;52.512;13.460;2022-10-16T06:31:29;3.97;;;2.33;;
50549;SDS011;36505;52.512;13.460;2022-10-16T06:33:56;3.30;;;1.92;;
50549;SDS011;36505;52.512;13.460;2022-10-16T06:36:22;3.38;;;2.40;;
50549;SDS011;36505;52.512;13.460;2022-10-16T06:38:48;9.60;;;3.40;;
50549;SDS011;36505;52.512;13.460;2022-10-16T06:41:17;5.03;;;3.67;;
50549;SDS011;36505;52.512;13.460;2022-10-16T06:43:44;4.50;;;1.80;;
50549;SDS011;36505;52.512;13.460;2022-10-16T06:46:10;7.28;;;3.22;;
50549;SDS011;36505;52.512;13.460;2022-10-16T06:48:37;4.22;;;2.70;;
50549;SDS011;36505;52.512;13.460;2022-10-16T06:51:05;5.93;;;2.80;;
50549;SDS011;36505;52.512;13.460;2022-10-16T06:53:33;7.50;;;2.67;;
50549;SDS011;36505;52.512;13.460;2022-10-16T06:56:09;5.07;;;2.72;;
50549;SDS011;36505;52.512;13.460;2022-10-16T06:58:39;4.15;;;2.45;;
50549;SDS011;36505;52.512;13.460;2022-10-16T07:01:05;3.00;;;2.22;;
50549;SDS011;36505;52.512;13.460;2022-10-16T07:03:31;2.70;;;1.90;;
50549;SDS011;36505;52.512;13.460;2022-10-16T07:05:57;3.33;;;2.03;;
50549;SDS011;36505;52.512;13.460;2022-10-16T07:08:26;4.15;;;2.17;;
50549;SDS011;36505;52.512;13.460;2022-10-16T07:10:57;2.90;;;2.00;;
50549;SDS011;36505;52.512;13.460;2022-10-16T07:13:26;5.05;;;2.10;;
50549;SDS011;36505;52.512;13.460;2022-10-16T07:15:52;5.60;;;2.47;;
50549;SDS011;36505;52.512;13.460;2022-10-16T07:18:17;5.40;;;2.20;;
50549;SDS011;36505;52.512;13.460;2022-10-16T07:20:42;4.15;;;2.58;;
50549;SDS011;36505;52.512;13.460;2022-10-16T07:23:07;3.40;;;2.33;;
50549;SDS011;36505;52.512;13.460;2022-10-16T07:25:33;3.58;;;2.33;;
50549;SDS011;36505;52.512;13.460;2022-10-16T07:27:58;3.92;;;2.63;;
50549;SDS011;36505;52.512;13.460;2022-10-16T07:30:23;3.95;;;2.60;;
50549;SDS011;36505;52.512;13.460;2022-10-16T07:32:49;20.80;;;2.67;;
50549;SDS011;36505;52.512;13.460;2022-10-16T07:35:14;2.15;;;1.70;;
50549;SDS011;36505;52.512;13.460;2022-10-16T07:37:43;2.90;;;1.77;;
50549;SDS011;36505;52.512;13.460;2022-10-16T07:40:09;7.18;;;2.15;;
50549;SDS011;36505;52.512;13.460;2022-10-16T07:42:35;3.08;;;1.90;;
50549;SDS011;36505;52.512;13.460;2022-10-16T07:45:00;4.63;;;2.30;;
50549;SDS011;36505;52.512;13.460;2022-10-16T07:47:25;3.83;;;2.15;;
50549;SDS011;36505;52.512;13.460;2022-10-16T07:49:51;6.22;;;2.00;;
50549;SDS011;36505;52.512;13.460;2022-10-16T07:52:16;4.47;;;2.50;;
50549;SDS011;36505;52.512;13.460;2022-10-16T07:54:41;2.80;;;1.80;;
50549;SDS011;36505;52.512;13.460;2022-10-16T07:57:07;8.55;;;3.10;;
50549;SDS011;36505;52.512;13.460;2022-10-16T07:59:32;6.10;;;2.22;;
50549;SDS011;36505;52.512;13.460;2022-10-16T08:01:57;2.30;;;1.88;;
50549;SDS011;36505;52.512;13.460;2022-10-16T08:04:22;5.70;;;1.98;;
50549;SDS011;36505;52.512;13.460;2022-10-16T08:06:48;6.80;;;2.42;;
50549;SDS011;36505;52.512;13.460;2022-10-16T08:09:14;8.27;;;1.58;;
50549;SDS011;36505;52.512;13.460;2022-10-16T08:11:40;8.57;;;2.58;;
50549;SDS011;36505;52.512;13.460;2022-10-16T08:14:05;6.45;;;3.65;;
50549;SDS011;36505;52.512;13.460;2022-10-16T08:16:31;7.05;;;3.97;;
50549;SDS011;36505;52.512;13.460;2022-10-16T08:18:56;4.75;;;2.50;;
50549;SDS011;36505;52.512;13.460;2022-10-16T08:21:22;7.10;;;3.10;;
50549;SDS011;36505;52.512;13.460;2022-10-16T08:23:48;6.47;;;3.15;;
50549;SDS011;36505;52.512;13.460;2022-10-16T08:26:14;5.95;;;2.08;;
50549;SDS011;36505;52.512;13.460;2022-10-16T08:28:39;4.07;;;1.40;;
50549;SDS011;36505;52.512;13.460;2022-10-16T08:31:05;7.03;;;1.60;;
50549;SDS011;36505;52.512;13.460;2022-10-16T08:33:32;2.47;;;1.60;;
50549;SDS011;36505;52.512;13.460;2022-10-16T08:35:59;2.88;;;1.88;;
50549;SDS011;36505;52.512;13.460;2022-10-16T08:38:25;2.40;;;1.48;;
50549;SDS011;36505;52.512;13.460;2022-10-16T08:40:50;4.82;;;2.22;;
50549;SDS011;36505;52.512;13.460;2022-10-16T08:49:00;5.00;;;1.60;;
50549;SDS011;36505;52.512;13.460;2022-10-16T08:51:31;4.22;;;1.75;;
50549;SDS011;36505;52.512;13.460;2022-10-16T08:54:04;3.90;;;2.78;;
50549;SDS011;36505;52.512;13.460;2022-10-16T08:56:31;5.35;;;2.53;;
50549;SDS011;36505;52.512;13.460;2022-10-16T08:58:58;7.40;;;2.17;;
50549;SDS011;36505;52.512;13.460;2022-10-16T09:01:25;4.50;;;2.58;;
50549;SDS011;36505;52.512;13.460;2022-10-16T09:04:05;3.85;;;1.83;;
50549;SDS011;36505;52.512;13.460;2022-10-16T09:20:03;4.22;;;1.52;;
50549;SDS011;36505;52.512;13.460;2022-10-16T09:22:48;3.05;;;1.50;;
50549;SDS011;36505;52.512;13.460;2022-10-16T09:25:20;2.90;;;1.23;;
50549;SDS011;36505;52.512;13.460;2022-10-16T09:27:47;3.80;;;1.75;;
50549;SDS011;36505;52.512;13.460;2022-10-16T09:30:17;2.58;;;1.13;;
50549;SDS011;36505;52.512;13.460;2022-10-16T09:32:44;4.63;;;1.50;;
50549;SDS011;36505;52.512;13.460;2022-10-16T09:35:16;7.57;;;4.75;;
50549;SDS011;36505;52.512;13.460;2022-10-16T09:37:45;8.70;;;4.45;;
50549;SDS011;36505;52.512;13.460;2022-10-16T09:42:58;5.13;;;2.10;;
50549;SDS011;36505;52.512;13.460;2022-10-16T09:45:30;4.65;;;1.98;;
50549;SDS011;36505;52.512;13.460;2022-10-16T09:47:56;3.00;;;1.83;;
50549;SDS011;36505;52.512;13.460;2022-10-16T09:50:22;3.90;;;2.08;;
50549;SDS011;36505;52.512;13.460;2022-10-16T09:52:51;4.38;;;2.80;;
50549;SDS011;36505;52.512;13.460;2022-10-16T09:55:27;3.95;;;1.63;;
50549;SDS011;36505;52.512;13.460;2022-10-16T09:57:53;3.58;;;2.13;;
50549;SDS011;36505;52.512;13.460;2022-10-16T10:00:20;4.05;;;1.42;;
50549;SDS011;36505;52.512;13.460;2022-10-16T10:02:47;5.85;;;1.92;;
50549;SDS011;36505;52.512;13.460;2022-10-16T10:07:45;4.13;;;1.55;;
50549;SDS011;36505;52.512;13.460;2022-10-16T10:12:48;1.83;;;1.00;;
50549;SDS011;36505;52.512;13.460;2022-10-16T10:15:13;2.40;;;1.08;;
50549;SDS011;36505;52.512;13.460;2022-10-16T10:17:53;8.35;;;1.15;;
50549;SDS011;36505;52.512;13.460;2022-10-16T10:22:49;3.13;;;1.17;;
50549;SDS011;36505;52.512;13.460;2022-10-16T10:25:37;1.55;;;1.00;;
50549;SDS011;36505;52.512;13.460;2022-10-16T10:36:05;2.42;;;1.40;;
50549;SDS011;36505;52.512;13.460;2022-10-16T10:39:01;1.98;;;1.45;;
50549;SDS011;36505;52.512;13.460;2022-10-16T10:46:51;5.03;;;2.90;;
50549;SDS011;36505;52.512;13.460;2022-10-16T10:55:06;2.22;;;1.42;;
50549;SDS011;36505;52.512;13.460;2022-10-16T10:57:50;3.88;;;1.60;;
50549;SDS011;36505;52.512;13.460;2022-10-16T11:08:35;8.45;;;1.05;;
50549;SDS011;36505;52.512;13.460;2022-10-16T11:14:05;2.45;;;1.30;;
50549;SDS011;36505;52.512;13.460;2022-10-16T11:16:45;1.60;;;0.95;;
50549;SDS011;36505;52.512;13.460;2022-10-16T11:24:55;4.47;;;1.80;;
50549;SDS011;36505;52.512;13.460;2022-10-16T11:27:34;4.57;;;2.20;;
50549;SDS011;36505;52.512;13.460;2022-10-16T11:30:05;3.72;;;2.08;;
50549;SDS011;36505;52.512;13.460;2022-10-16T11:33:26;4.25;;;1.77;;
50549;SDS011;36505;52.512;13.460;2022-10-16T11:35:38;3.78;;;1.90;;
50549;SDS011;36505;52.512;13.460;2022-10-16T11:38:30;5.28;;;2.33;;
50549;SDS011;36505;52.512;13.460;2022-10-16T11:41:04;4.13;;;2.22;;
50549;SDS011;36505;52.512;13.460;2022-10-16T11:43:48;5.53;;;2.40;;
50549;SDS011;36505;52.512;13.460;2022-10-16T11:46:21;3.70;;;2.25;;
50549;SDS011;36505;52.512;13.460;2022-10-16T11:49:09;8.57;;;2.83;;
50549;SDS011;36505;52.512;13.460;2022-10-16T11:51:40;5.47;;;2.22;;
50549;SDS011;36505;52.512;13.460;2022-10-16T11:56:54;3.15;;;1.27;;
50549;SDS011;36505;52.512;13.460;2022-10-16T11:59:33;4.10;;;2.00;;
50549;SDS011;36505;52.512;13.460;2022-10-16T12:04:43;4.60;;;2.45;;
50549;SDS011;36505;52.512;13.460;2022-10-16T12:07:19;4.95;;;1.80;;
50549;SDS011;36505;52.512;13.460;2022-10-16T12:09:49;4.80;;;2.03;;
50549;SDS011;36505;52.512;13.460;2022-10-16T12:17:53;3.25;;;1.55;;
50549;SDS011;36505;52.512;13.460;2022-10-16T12:20:23;2.22;;;1.42;;
50549;SDS011;36505;52.512;13.460;2022-10-16T12:22:50;2.45;;;1.00;;
50549;SDS011;36505;52.512;13.460;2022-10-16T12:25:26;5.72;;;2.05;;
50549;SDS011;36505;52.512;13.460;2022-10-16T12:31:20;3.80;;;1.95;;
50549;SDS011;36505;52.512;13.460;2022-10-16T12:33:42;5.60;;;3.10;;
50549;SDS011;36505;52.512;13.460;2022-10-16T12:39:23;4.60;;;1.70;;
50549;SDS011;36505;52.512;13.460;2022-10-16T12:42:17;2.20;;;1.73;;
50549;SDS011;36505;52.512;13.460;2022-10-16T12:44:45;2.78;;;1.83;;
50549;SDS011;36505;52.512;13.460;2022-10-16T12:49:54;5.90;;;1.77;;
50549;SDS011;36505;52.512;13.460;2022-10-16T12:52:24;4.80;;;2.13;;
50549;SDS011;36505;52.512;13.460;2022-10-16T12:54:51;7.10;;;2.30;;
50549;SDS011;36505;52.512;13.460;2022-10-16T12:57:38;7.30;;;2.17;;
50549;SDS011;36505;52.512;13.460;2022-10-16T13:11:43;5.85;;;1.88;;
50549;SDS011;36505;52.512;13.460;2022-10-16T13:14:32;7.47;;;2.63;;
50549;SDS011;36505;52.512;13.460;2022-10-16T13:27:52;3.38;;;1.40;;
50549;SDS011;36505;52.512;13.460;2022-10-16T13:30:25;5.80;;;2.72;;
50549;SDS011;36505;52.512;13.460;2022-10-16T13:33:03;4.38;;;2.25;;
50549;SDS011;36505;52.512;13.460;2022-10-16T13:35:34;1.42;;;0.95;;
50549;SDS011;36505;52.512;13.460;2022-10-16T13:38:13;2.63;;;1.42;;
50549;SDS011;36505;52.512;13.460;2022-10-16T13:43:18;7.05;;;1.33;;
50549;SDS011;36505;52.512;13.460;2022-10-16T13:45:52;2.92;;;1.20;;
50549;SDS011;36505;52.512;13.460;2022-10-16T13:48:22;2.53;;;1.58;;
50549;SDS011;36505;52.512;13.460;2022-10-16T13:50:57;4.15;;;1.50;;
50549;SDS011;36505;52.512;13.460;2022-10-16T13:53:23;3.28;;;1.80;;
50549;SDS011;36505;52.512;13.460;2022-10-16T13:55:49;4.63;;;2.00;;
50549;SDS011;36505;52.512;13.460;2022-10-16T13:58:14;5.07;;;1.80;;
50549;SDS011;36505;52.512;13.460;2022-10-16T14:00:41;4.75;;;1.48;;
50549;SDS011;36505;52.512;13.460;2022-10-16T14:03:19;2.60;;;1.52;;
50549;SDS011;36505;52.512;13.460;2022-10-16T14:05:49;2.90;;;1.35;;
50549;SDS011;36505;52.512;13.460;2022-10-16T14:08:17;5.93;;;2.22;;
50549;SDS011;36505;52.512;13.460;2022-10-16T14:10:42;8.25;;;4.10;;
50549;SDS011;36505;52.512;13.460;2022-10-16T14:13:14;10.40;;;4.10;;
50549;SDS011;36505;52.512;13.460;2022-10-16T14:15:45;4.43;;;1.57;;
50549;SDS011;36505;52.512;13.460;2022-10-16T14:18:18;5.65;;;1.42;;
50549;SDS011;36505;52.512;13.460;2022-10-16T14:20:47;2.95;;;1.50;;
50549;SDS011;36505;52.512;13.460;2022-10-16T14:23:23;4.35;;;1.73;;
50549;SDS011;36505;52.512;13.460;2022-10-16T14:26:05;5.95;;;1.90;;
50549;SDS011;36505;52.512;13.460;2022-10-16T14:28:42;9.98;;;1.20;;
50549;SDS011;36505;52.512;13.460;2022-10-16T14:34:23;3.60;;;1.95;;
50549;SDS011;36505;52.512;13.460;2022-10-16T14:36:53;2.38;;;1.50;;
50549;SDS011;36505;52.512;13.460;2022-10-16T14:39:21;5.68;;;1.60;;
50549;SDS011;36505;52.512;13.460;2022-10-16T14:41:48;4.28;;;1.67;;
50549;SDS011;36505;52.512;13.460;2022-10-16T14:44:14;4.25;;;1.83;;
50549;SDS011;36505;52.512;13.460;2022-10-16T14:46:43;6.20;;;2.60;;
50549;SDS011;36505;52.512;13.460;2022-10-16T14:51:35;7.38;;;3.72;;
50549;SDS011;36505;52.512;13.460;2022-10-16T14:54:01;9.60;;;3.03;;
50549;SDS011;36505;52.512;13.460;2022-10-16T14:56:29;7.53;;;4.40;;
50549;SDS011;36505;52.512;13.460;2022-10-16T14:59:16;3.90;;;2.28;;
50549;SDS011;36505;52.512;13.460;2022-10-16T15:01:45;3.40;;;2.03;;
50549;SDS011;36505;52.512;13.460;2022-10-16T15:04:11;5.68;;;1.98;;
50549;SDS011;36505;52.512;13.460;2022-10-16T15:06:37;8.57;;;2.33;;
50549;SDS011;36505;52.512;13.460;2022-10-16T15:09:03;3.55;;;2.10;;
50549;SDS011;36505;52.512;13.460;2022-10-16T15:11:28;5.72;;;1.75;;
50549;SDS011;36505;52.512;13.460;2022-10-16T15:13:56;11.30;;;2.80;;
50549;SDS011;36505;52.512;13.460;2022-10-16T15:16:21;27.33;;;3.92;;
50549;SDS011;36505;52.512;13.460;2022-10-16T15:18:46;6.60;;;1.77;;
50549;SDS011;36505;52.512;13.460;2022-10-16T15:21:20;4.43;;;1.65;;
50549;SDS011;36505;52.512;13.460;2022-10-16T15:23:51;3.60;;;2.25;;
50549;SDS011;36505;52.512;13.460;2022-10-16T15:26:16;9.02;;;2.63;;
50549;SDS011;36505;52.512;13.460;2022-10-16T15:28:41;2.50;;;1.80;;
50549;SDS011;36505;52.512;13.460;2022-10-16T15:31:07;4.30;;;1.80;;
50549;SDS011;36505;52.512;13.460;2022-10-16T15:33:32;3.05;;;1.70;;
50549;SDS011;36505;52.512;13.460;2022-10-16T15:35:59;19.60;;;3.65;;
50549;SDS011;36505;52.512;13.460;2022-10-16T15:38:26;8.27;;;2.58;;
50549;SDS011;36505;52.512;13.460;2022-10-16T15:40:53;5.05;;;2.67;;
50549;SDS011;36505;52.512;13.460;2022-10-16T15:43:18;9.10;;;3.10;;
50549;SDS011;36505;52.512;13.460;2022-10-16T15:45:44;10.27;;;2.50;;
50549;SDS011;36505;52.512;13.460;2022-10-16T15:48:19;9.27;;;2.53;;
50549;SDS011;36505;52.512;13.460;2022-10-16T15:50:45;3.58;;;2.10;;
50549;SDS011;36505;52.512;13.460;2022-10-16T15:53:10;4.60;;;2.22;;
50549;SDS011;36505;52.512;13.460;2022-10-16T15:55:35;6.18;;;4.10;;
50549;SDS011;36505;52.512;13.460;2022-10-16T15:58:02;6.75;;;3.42;;
50549;SDS011;36505;52.512;13.460;2022-10-16T16:00:29;7.25;;;3.10;;
50549;SDS011;36505;52.512;13.460;2022-10-16T16:02:54;7.72;;;4.13;;
50549;SDS011;36505;52.512;13.460;2022-10-16T16:05:20;6.63;;;4.10;;
50549;SDS011;36505;52.512;13.460;2022-10-16T16:07:47;5.68;;;3.75;;
50549;SDS011;36505;52.512;13.460;2022-10-16T16:10:13;7.47;;;3.70;;
50549;SDS011;36505;52.512;13.460;2022-10-16T16:12:39;12.43;;;3.55;;
50549;SDS011;36505;52.512;13.460;2022-10-16T16:15:05;12.27;;;4.70;;
50549;SDS011;36505;52.512;13.460;2022-10-16T16:17:31;13.93;;;7.60;;
50549;SDS011;36505;52.512;13.460;2022-10-16T16:19:57;11.80;;;6.03;;
50549;SDS011;36505;52.512;13.460;2022-10-16T16:22:23;17.00;;;7.13;;
50549;SDS011;36505;52.512;13.460;2022-10-16T16:24:48;11.05;;;6.25;;
50549;SDS011;36505;52.512;13.460;2022-10-16T16:27:14;7.45;;;4.20;;
50549;SDS011;36505;52.512;13.460;2022-10-16T16:29:39;8.32;;;3.80;;
50549;SDS011;36505;52.512;13.460;2022-10-16T16:32:05;12.57;;;5.90;;
50549;SDS011;36505;52.512;13.460;2022-10-16T16:34:30;14.13;;;8.27;;
50549;SDS011;36505;52.512;13.460;2022-10-16T16:36:55;12.73;;;5.60;;
50549;SDS011;36505;52.512;13.460;2022-10-16T16:39:22;8.55;;;4.88;;
50549;SDS011;36505;52.512;13.460;2022-10-16T16:41:48;12.65;;;6.50;;
50549;SDS011;36505;52.512;13.460;2022-10-16T16:44:13;11.98;;;4.60;;
50549;SDS011;36505;52.512;13.460;2022-10-16T16:46:41;11.27;;;4.82;;
50549;SDS011;36505;52.512;13.460;2022-10-16T16:49:12;12.40;;;5.65;;
50549;SDS011;36505;52.512;13.460;2022-10-16T16:51:38;8.63;;;4.63;;
50549;SDS011;36505;52.512;13.460;2022-10-16T16:54:03;14.52;;;8.93;;
50549;SDS011;36505;52.512;13.460;2022-10-16T16:56:29;16.77;;;9.70;;
50549;SDS011;36505;52.512;13.460;2022-10-16T16:58:55;13.93;;;8.02;;